createdAt,value
2019-05-06T00:01:33.981Z,3.80
2019-05-06T00:04:04.952Z,3.60
2019-05-06T00:06:34.681Z,3.40
2019-05-06T00:09:05.511Z,3.30
2019-05-06T00:11:34.883Z,3.20
2019-05-06T00:14:04.113Z,2.90
2019-05-06T00:16:34.644Z,2.90
2019-05-06T00:19:04.768Z,2.90
2019-05-06T00:21:35.535Z,2.90
2019-05-06T00:24:04.466Z,2.70
2019-05-06T00:26:46.738Z,2.70
2019-05-06T00:29:16.886Z,2.60
2019-05-06T00:31:45.372Z,2.50
2019-05-06T00:34:13.968Z,2.40
2019-05-06T00:36:43.673Z,2.40
2019-05-06T00:39:19.642Z,2.20
2019-05-06T00:41:50.068Z,2.20
2019-05-06T00:44:18.508Z,2.10
2019-05-06T00:46:46.211Z,2.00
2019-05-06T00:49:15.018Z,2.10
2019-05-06T00:51:43.957Z,2.00
2019-05-06T00:54:17.133Z,2.00
2019-05-06T00:56:46.235Z,1.90
2019-05-06T00:59:14.692Z,1.90
2019-05-06T01:01:43.537Z,1.80
2019-05-06T01:04:13.922Z,1.90
2019-05-06T01:06:44.082Z,1.80
2019-05-06T01:09:14.759Z,1.60
2019-05-06T01:11:44.921Z,1.60
2019-05-06T01:14:18.289Z,1.70
2019-05-06T01:16:46.727Z,1.60
2019-05-06T01:19:15.219Z,1.70
2019-05-06T01:21:44.747Z,1.60
2019-05-06T01:24:14.718Z,1.60
2019-05-06T01:26:44.403Z,1.70
2019-05-06T01:29:14.537Z,1.60
2019-05-06T01:31:45.907Z,1.70
2019-05-06T01:34:13.890Z,1.80
2019-05-06T01:36:43.764Z,1.80
2019-05-06T01:39:14.012Z,1.90
2019-05-06T01:41:59.426Z,1.80
2019-05-06T01:44:28.023Z,1.50
2019-05-06T01:46:56.847Z,1.50
2019-05-06T01:49:25.515Z,1.50
2019-05-06T01:51:54.751Z,1.50
2019-05-06T01:54:24.839Z,1.50
2019-05-06T01:56:54.214Z,1.50
2019-05-06T01:59:24.642Z,1.50
2019-05-06T02:01:59.931Z,1.40
2019-05-06T02:04:24.439Z,1.20
2019-05-06T02:06:54.495Z,0.90
2019-05-06T02:09:24.667Z,0.90
2019-05-06T02:11:53.733Z,0.90
2019-05-06T02:14:24.460Z,0.90
2019-05-06T02:16:54.574Z,0.90
2019-05-06T02:19:24.158Z,0.80
2019-05-06T02:21:55.102Z,0.80
2019-05-06T02:24:25.311Z,0.80
2019-05-06T02:26:54.403Z,0.80
2019-05-06T02:29:39.037Z,0.70
2019-05-06T02:32:30.781Z,0.70
2019-05-06T02:35:05.195Z,0.70
2019-05-06T02:37:37.529Z,0.80
2019-05-06T02:40:07.094Z,0.90
2019-05-06T02:42:35.589Z,1.00
2019-05-06T02:45:05.183Z,1.00
2019-05-06T02:47:42.931Z,0.80
2019-05-06T02:50:30.031Z,1.00
2019-05-06T02:52:58.472Z,0.80
2019-05-06T02:55:26.988Z,0.70
2019-05-06T02:57:55.843Z,0.70
2019-05-06T03:00:24.449Z,0.80
2019-05-06T03:02:54.122Z,0.80
2019-05-06T03:05:23.767Z,0.90
2019-05-06T03:07:57.154Z,0.90
2019-05-06T03:10:24.640Z,0.90
2019-05-06T03:12:53.814Z,1.10
2019-05-06T03:15:24.054Z,1.20
2019-05-06T03:17:55.383Z,1.20
2019-05-06T03:20:43.886Z,1.10
2019-05-06T03:23:14.469Z,1.20
2019-05-06T03:25:44.304Z,1.40
2019-05-06T03:28:13.327Z,1.60
2019-05-06T03:30:45.969Z,1.50
2019-05-06T03:33:38.410Z,1.50
2019-05-06T03:35:57.763Z,1.50
2019-05-06T03:38:13.713Z,1.60
2019-05-06T03:40:45.705Z,1.60
2019-05-06T03:43:13.194Z,1.60
2019-05-06T03:45:53.489Z,1.70
2019-05-06T03:48:34.470Z,1.70
2019-05-06T03:51:04.027Z,1.70
2019-05-06T03:53:34.351Z,1.70
2019-05-06T03:56:03.637Z,1.70
2019-05-06T03:58:35.180Z,1.80
2019-05-06T04:01:04.017Z,1.80
2019-05-06T04:03:44.049Z,1.80
2019-05-06T04:06:04.678Z,1.90
2019-05-06T04:08:34.160Z,2.00
2019-05-06T04:11:03.173Z,2.10
2019-05-06T04:13:33.212Z,2.10
2019-05-06T04:16:03.805Z,2.30
2019-05-06T04:18:43.764Z,2.30
2019-05-06T04:21:13.680Z,2.60
2019-05-06T04:24:03.863Z,2.50
2019-05-06T04:26:46.358Z,2.70
2019-05-06T04:29:13.750Z,2.70
2019-05-06T04:31:43.600Z,2.70
2019-05-06T04:34:15.899Z,2.80
2019-05-06T04:36:43.785Z,3.00
2019-05-06T04:39:12.836Z,3.10
2019-05-06T04:41:39.551Z,3.30
2019-05-06T04:44:08.262Z,3.30
2019-05-06T04:46:35.977Z,3.50
2019-05-06T04:49:04.546Z,3.50
2019-05-06T04:51:33.382Z,3.50
2019-05-06T04:54:04.261Z,3.60
2019-05-06T04:56:33.321Z,3.60
2019-05-06T04:59:05.768Z,3.70
2019-05-06T05:01:33.877Z,3.80
2019-05-06T05:04:03.291Z,3.90
2019-05-06T05:06:29.676Z,4.00
2019-05-06T05:08:57.837Z,4.10
2019-05-06T05:11:27.667Z,4.30
2019-05-06T05:14:09.227Z,4.30
2019-05-06T05:16:44.743Z,4.40
2019-05-06T05:19:14.164Z,4.70
2019-05-06T05:21:42.875Z,4.70
2019-05-06T05:24:12.027Z,4.80
2019-05-06T05:26:43.344Z,5.10
2019-05-06T05:29:12.190Z,5.30
2019-05-06T05:31:40.279Z,5.40
2019-05-06T05:34:08.069Z,5.40
2019-05-06T05:36:36.567Z,5.50
2019-05-06T05:39:06.456Z,5.40
2019-05-06T05:41:35.021Z,5.60
2019-05-06T05:44:04.407Z,5.70
2019-05-06T05:46:33.006Z,5.70
2019-05-06T05:49:02.927Z,5.70
2019-05-06T05:51:32.018Z,5.70
2019-05-06T05:54:02.073Z,5.70
2019-05-06T05:56:29.866Z,5.70
2019-05-06T05:58:58.352Z,5.60
2019-05-06T06:01:27.024Z,5.60
2019-05-06T06:06:23.707Z,5.50
2019-05-06T06:08:52.499Z,5.50
2019-05-06T06:11:23.467Z,5.60
2019-05-06T06:13:52.549Z,5.50
2019-05-06T06:16:37.587Z,5.50
2019-05-06T06:19:18.262Z,5.60
2019-05-06T06:21:52.393Z,5.70
2019-05-06T06:24:22.705Z,5.80
2019-05-06T06:26:52.082Z,5.80
2019-05-06T06:29:22.730Z,5.80
2019-05-06T06:32:10.811Z,6.00
2019-05-06T06:34:42.724Z,5.90
2019-05-06T06:37:27.780Z,6.00
2019-05-06T06:39:57.264Z,6.00
2019-05-06T06:42:25.826Z,6.00
2019-05-06T06:44:54.339Z,6.10
2019-05-06T06:47:23.220Z,6.20
2019-05-06T06:49:53.486Z,6.30
2019-05-06T06:52:23.069Z,6.30
2019-05-06T06:54:52.724Z,6.50
2019-05-06T06:57:25.863Z,6.50
2019-05-06T07:00:04.122Z,6.60
2019-05-06T07:05:24.529Z,7.00
2019-05-06T07:07:47.605Z,7.30
2019-05-06T07:10:33.945Z,7.40
2019-05-06T07:13:03.025Z,7.40
2019-05-06T07:15:33.696Z,7.50
2019-05-06T07:18:02.507Z,7.30
2019-05-06T07:23:04.843Z,7.50
2019-05-06T07:25:33.658Z,7.70
2019-05-06T07:28:02.922Z,7.70
2019-05-06T07:30:33.871Z,7.70
2019-05-06T07:33:03.621Z,7.90
2019-05-06T07:35:38.571Z,8.00
2019-05-06T07:38:02.381Z,8.10
2019-05-06T07:40:32.662Z,8.00
2019-05-06T07:43:02.390Z,8.10
2019-05-06T07:45:32.903Z,8.10
2019-05-06T07:48:03.730Z,8.30
2019-05-06T07:50:33.200Z,8.30
2019-05-06T07:53:07.427Z,8.20
2019-05-06T07:55:36.592Z,8.20
2019-05-06T08:00:32.845Z,8.60
2019-05-06T08:03:02.525Z,8.70
2019-05-06T08:05:32.420Z,8.90
2019-05-06T08:08:03.472Z,8.90
2019-05-06T08:10:33.533Z,9.20
2019-05-06T08:13:03.068Z,9.40
2019-05-06T08:15:32.837Z,9.50
2019-05-06T08:18:03.516Z,9.60
2019-05-06T08:20:37.980Z,9.60
2019-05-06T08:23:14.155Z,9.50
2019-05-06T08:25:43.736Z,8.60
2019-05-06T08:28:13.205Z,8.50
2019-05-06T08:30:43.030Z,8.20
2019-05-06T08:33:12.747Z,8.10
2019-05-06T08:35:42.624Z,8.10
2019-05-06T08:38:12.192Z,8.00
2019-05-06T08:40:39.743Z,8.00
2019-05-06T08:43:07.665Z,8.20
2019-05-06T08:45:35.375Z,8.20
2019-05-06T08:50:45.028Z,8.50
2019-05-06T08:53:14.424Z,8.50
2019-05-06T08:55:46.500Z,8.50
2019-05-06T08:58:14.222Z,8.40
2019-05-06T09:00:50.056Z,8.40
2019-05-06T09:03:18.048Z,8.30
2019-05-06T09:05:50.228Z,8.50
2019-05-06T09:08:17.948Z,8.50
2019-05-06T09:10:45.595Z,8.60
2019-05-06T09:13:13.316Z,8.60
2019-05-06T09:15:42.910Z,8.60
2019-05-06T09:18:12.451Z,8.60
2019-05-06T09:20:40.226Z,8.80
2019-05-06T09:23:08.002Z,8.70
2019-05-06T09:25:35.711Z,8.10
2019-05-06T09:28:08.100Z,8.10
2019-05-06T09:30:40.528Z,8.20
2019-05-06T09:33:08.888Z,8.10
2019-05-06T09:35:36.786Z,8.20
2019-05-06T09:38:05.620Z,8.40
2019-05-06T09:40:33.273Z,8.40
2019-05-06T09:43:04.700Z,8.60
2019-05-06T09:45:33.041Z,8.60
2019-05-06T09:48:05.777Z,8.50
2019-05-06T09:53:02.413Z,8.50
2019-05-06T09:55:48.807Z,8.50
2019-05-06T09:58:16.657Z,8.50
2019-05-06T10:00:46.015Z,8.80
2019-05-06T10:03:13.742Z,8.80
2019-05-06T10:05:42.574Z,9.00
2019-05-06T10:08:12.398Z,9.10
2019-05-06T10:10:53.758Z,9.10
2019-05-06T10:13:12.661Z,9.00
2019-05-06T10:15:39.619Z,9.20
2019-05-06T10:18:07.519Z,9.30
2019-05-06T10:20:42.602Z,9.30
2019-05-06T10:23:12.238Z,9.50
2019-05-06T10:25:43.750Z,9.60
2019-05-06T10:28:19.704Z,9.90
2019-05-06T10:30:49.947Z,10.10
2019-05-06T10:33:23.146Z,9.70
2019-05-06T10:35:53.030Z,9.70
2019-05-06T10:38:54.940Z,9.60
2019-05-06T10:41:24.248Z,9.60
2019-05-06T10:44:12.315Z,9.40
2019-05-06T10:46:43.054Z,10.10
2019-05-06T10:49:13.176Z,10.30
2019-05-06T10:52:02.151Z,10.40
2019-05-06T10:54:31.831Z,10.40
2019-05-06T10:57:05.011Z,10.40
2019-05-06T10:59:32.769Z,10.60
2019-05-06T11:02:12.983Z,10.70
2019-05-06T11:04:42.595Z,10.20
2019-05-06T11:07:12.428Z,9.70
2019-05-06T11:09:42.661Z,9.40
2019-05-06T11:14:37.363Z,9.60
2019-05-06T11:17:05.800Z,9.80
2019-05-06T11:19:34.426Z,10.30
2019-05-06T11:22:03.573Z,10.70
2019-05-06T11:24:32.739Z,10.60
2019-05-06T11:27:03.430Z,10.00
2019-05-06T11:29:36.772Z,9.60
2019-05-06T11:32:06.356Z,9.50
2019-05-06T11:34:35.724Z,9.30
2019-05-06T11:37:05.016Z,9.20
2019-05-06T11:39:32.777Z,9.20
2019-05-06T11:42:22.843Z,9.10
2019-05-06T11:44:31.943Z,9.20
2019-05-06T11:49:28.629Z,9.20
2019-05-06T11:51:56.603Z,9.30
2019-05-06T11:54:24.777Z,9.50
2019-05-06T11:56:58.201Z,9.80
2019-05-06T11:59:24.709Z,10.00
2019-05-06T12:02:02.547Z,10.20
2019-05-06T12:04:32.889Z,10.50
2019-05-06T12:09:33.009Z,10.70
2019-05-06T12:12:03.345Z,10.70
2019-05-06T12:14:32.085Z,10.80
2019-05-06T12:17:02.242Z,11.10
2019-05-06T12:22:00.223Z,10.50
2019-05-06T12:24:28.784Z,10.80
2019-05-06T12:26:57.200Z,10.60
2019-05-06T12:29:25.912Z,10.10
2019-05-06T12:31:55.980Z,9.80
2019-05-06T12:34:24.401Z,10.00
2019-05-06T12:36:54.511Z,10.00
2019-05-06T12:39:24.535Z,10.00
2019-05-06T12:42:08.436Z,9.90
2019-05-06T12:44:38.457Z,10.20
2019-05-06T12:47:21.307Z,10.70
2019-05-06T12:49:49.948Z,10.80
2019-05-06T12:52:18.450Z,10.90
2019-05-06T12:54:46.960Z,10.70
2019-05-06T12:57:14.992Z,10.50
2019-05-06T12:59:42.791Z,10.10
2019-05-06T13:02:12.942Z,10.00
2019-05-06T13:04:51.534Z,10.00
2019-05-06T13:07:11.343Z,9.90
2019-05-06T13:09:42.356Z,9.80
2019-05-06T13:12:12.330Z,9.80
2019-05-06T13:14:39.867Z,9.70
2019-05-06T13:17:09.159Z,9.50
2019-05-06T13:19:36.841Z,9.40
2019-05-06T13:22:04.502Z,9.10
2019-05-06T13:24:32.816Z,9.00
2019-05-06T13:32:02.046Z,8.60
2019-05-06T13:34:30.159Z,8.50
2019-05-06T13:36:57.871Z,8.50
2019-05-06T13:39:25.563Z,8.50
2019-05-06T13:44:22.819Z,9.00
2019-05-06T13:46:52.873Z,9.10
2019-05-06T13:51:56.847Z,9.50
2019-05-06T13:54:24.543Z,9.70
2019-05-06T13:56:52.310Z,10.20
2019-05-06T13:59:20.213Z,10.50
2019-05-06T14:01:49.636Z,10.50
2019-05-06T14:04:17.382Z,10.50
2019-05-06T14:06:45.034Z,10.30
2019-05-06T14:09:28.039Z,10.60
2019-05-06T14:11:42.399Z,10.90
2019-05-06T14:14:12.392Z,10.90
2019-05-06T14:16:42.397Z,11.40
2019-05-06T14:19:09.183Z,12.10
2019-05-06T14:21:37.180Z,11.90
2019-05-06T14:24:05.050Z,11.90
2019-05-06T14:26:37.217Z,11.40
2019-05-06T14:29:09.428Z,11.10
2019-05-06T14:31:45.509Z,11.10
2019-05-06T14:34:11.994Z,11.10
2019-05-06T14:36:40.367Z,10.40
2019-05-06T14:39:09.659Z,10.50
2019-05-06T14:41:38.959Z,10.50
2019-05-06T14:44:09.349Z,10.30
2019-05-06T14:46:54.429Z,10.40
2019-05-06T14:49:22.554Z,10.80
2019-05-06T14:51:50.399Z,11.30
2019-05-06T14:54:18.048Z,11.80
2019-05-06T14:56:53.489Z,12.60
2019-05-06T14:59:23.399Z,13.10
2019-05-06T15:01:53.607Z,13.00
2019-05-06T15:04:22.809Z,12.00
2019-05-06T15:06:49.750Z,11.60
2019-05-06T15:09:17.480Z,11.60
2019-05-06T15:11:45.227Z,11.30
2019-05-06T15:14:13.155Z,10.80
2019-05-06T15:19:12.606Z,10.40
2019-05-06T15:21:42.516Z,10.60
2019-05-06T15:24:09.449Z,10.50
2019-05-06T15:26:37.188Z,10.90
2019-05-06T15:29:04.919Z,11.40
2019-05-06T15:31:41.965Z,11.00
2019-05-06T15:34:19.687Z,10.80
2019-05-06T15:36:52.950Z,10.80
2019-05-06T15:39:20.820Z,10.60
2019-05-06T15:41:48.464Z,10.60
2019-05-06T15:44:16.259Z,10.50
2019-05-06T15:46:45.660Z,10.50
2019-05-06T15:49:13.338Z,10.50
2019-05-06T15:51:42.781Z,10.50
2019-05-06T15:54:10.460Z,10.10
2019-05-06T15:56:38.104Z,10.10
2019-05-06T15:59:05.952Z,10.20
2019-05-06T16:01:34.376Z,10.30
2019-05-06T16:04:02.272Z,10.30
2019-05-06T16:06:30.311Z,10.30
2019-05-06T16:08:58.387Z,10.10
2019-05-06T16:11:26.299Z,10.10
2019-05-06T16:13:53.975Z,10.00
2019-05-06T16:16:22.821Z,10.00
2019-05-06T16:18:52.097Z,9.90
2019-05-06T16:21:19.749Z,9.70
2019-05-06T16:23:55.148Z,9.70
2019-05-06T16:26:22.997Z,10.00
2019-05-06T16:28:53.131Z,10.00
2019-05-06T16:31:21.973Z,10.10
2019-05-06T16:36:17.598Z,10.20
2019-05-06T16:38:45.255Z,10.10
2019-05-06T16:41:16.058Z,10.00
2019-05-06T16:43:42.762Z,10.00
2019-05-06T16:46:12.624Z,9.70
2019-05-06T16:48:40.034Z,9.70
2019-05-06T16:51:07.744Z,9.70
2019-05-06T16:53:35.491Z,9.70
2019-05-06T16:56:08.166Z,9.60
2019-05-06T16:58:37.466Z,9.60
2019-05-06T17:01:05.535Z,9.60
2019-05-06T17:03:35.018Z,9.60
2019-05-06T17:06:04.423Z,9.60
2019-05-06T17:08:35.961Z,9.50
2019-05-06T17:11:04.401Z,9.60
2019-05-06T17:13:34.035Z,9.50
2019-05-06T17:16:02.508Z,9.50
2019-05-06T17:18:32.979Z,9.50
2019-05-06T17:20:59.808Z,9.60
2019-05-06T17:23:28.647Z,9.70
2019-05-06T17:25:56.362Z,9.50
2019-05-06T17:28:25.680Z,9.40
2019-05-06T17:30:55.377Z,9.40
2019-05-06T17:33:33.805Z,9.30
2019-05-06T17:36:03.078Z,9.20
2019-05-06T17:38:32.789Z,9.20
2019-05-06T17:41:00.635Z,9.20
2019-05-06T17:43:28.290Z,9.10
2019-05-06T17:46:02.294Z,9.10
2019-05-06T17:48:32.171Z,8.90
2019-05-06T17:51:18.463Z,9.00
2019-05-06T17:53:47.830Z,8.90
2019-05-06T17:56:15.533Z,8.90
2019-05-06T17:58:43.375Z,8.90
2019-05-06T18:01:12.648Z,8.80
2019-05-06T18:03:40.418Z,8.80
2019-05-06T18:06:13.692Z,8.70
2019-05-06T18:08:37.736Z,8.60
2019-05-06T18:11:05.388Z,8.60
2019-05-06T18:13:33.075Z,8.60
2019-05-06T18:16:00.970Z,8.50
2019-05-06T18:18:29.130Z,8.50
2019-05-06T18:20:56.863Z,8.50
2019-05-06T18:23:24.535Z,8.40
2019-05-06T18:25:52.437Z,8.40
2019-05-06T18:28:22.694Z,8.40
2019-05-06T18:30:51.930Z,8.30
2019-05-06T18:33:19.499Z,8.20
2019-05-06T18:35:47.264Z,8.10
2019-05-06T18:38:14.985Z,8.10
2019-05-06T18:40:42.634Z,8.10
2019-05-06T18:43:12.598Z,8.00
2019-05-06T18:45:41.921Z,8.00
2019-05-06T18:48:09.611Z,8.00
2019-05-06T18:50:37.487Z,8.00
2019-05-06T18:53:05.235Z,8.00
2019-05-06T18:55:33.349Z,8.00
2019-05-06T18:58:02.249Z,8.00
2019-05-06T19:00:32.024Z,7.90
2019-05-06T19:02:59.810Z,7.80
2019-05-06T19:05:29.428Z,7.70
2019-05-06T19:07:57.156Z,7.70
2019-05-06T19:10:29.710Z,7.60
2019-05-06T19:15:24.997Z,7.80
2019-05-06T19:17:53.032Z,7.80
2019-05-06T19:20:21.928Z,7.70
2019-05-06T19:22:50.122Z,7.60
2019-05-06T19:25:17.831Z,7.60
2019-05-06T19:30:13.416Z,7.50
2019-05-06T19:32:42.479Z,7.50
2019-05-06T19:35:13.056Z,7.50
2019-05-06T19:37:40.310Z,7.50
2019-05-06T19:42:46.328Z,7.30
2019-05-06T19:45:08.206Z,7.30
2019-05-06T19:47:36.144Z,7.20
2019-05-06T19:50:04.768Z,7.00
2019-05-06T19:52:32.724Z,7.00
2019-05-06T19:55:02.936Z,6.90
2019-05-06T19:57:32.215Z,7.00
2019-05-06T19:59:59.291Z,7.00
2019-05-06T20:02:27.039Z,6.90
2019-05-06T20:04:56.403Z,6.90
2019-05-06T20:07:27.116Z,6.90
2019-05-06T20:10:12.807Z,6.80
2019-05-06T20:13:00.973Z,6.80
2019-05-06T20:15:35.921Z,6.80
2019-05-06T20:18:04.211Z,6.70
2019-05-06T20:20:34.891Z,6.60
2019-05-06T20:23:02.646Z,6.60
2019-05-06T20:25:30.535Z,6.30
2019-05-06T20:27:58.527Z,6.20
2019-05-06T20:30:26.509Z,6.20
2019-05-06T20:32:54.206Z,6.10
2019-05-06T20:35:22.442Z,6.00
2019-05-06T20:37:50.194Z,5.90
2019-05-06T20:40:17.981Z,5.80
2019-05-06T20:42:45.769Z,5.80
2019-05-06T20:45:13.596Z,5.70
2019-05-06T20:47:42.936Z,5.70
2019-05-06T20:50:13.229Z,5.70
2019-05-06T20:52:42.410Z,5.50
2019-05-06T20:55:15.879Z,5.50
2019-05-06T20:57:42.043Z,5.40
2019-05-06T21:00:10.307Z,5.30
2019-05-06T21:02:38.659Z,5.20
2019-05-06T21:05:07.231Z,5.00
2019-05-06T21:07:35.015Z,4.90
2019-05-06T21:10:03.333Z,4.70
2019-05-06T21:12:31.047Z,4.50
2019-05-06T21:14:58.891Z,4.40
2019-05-06T21:17:26.621Z,4.20
2019-05-06T21:19:54.273Z,4.00
2019-05-06T21:22:21.971Z,3.90
2019-05-06T21:24:49.883Z,3.90
2019-05-06T21:27:17.532Z,3.70
2019-05-06T21:29:45.543Z,3.60
2019-05-06T21:32:13.529Z,3.70
2019-05-06T21:34:43.119Z,3.60
2019-05-06T21:37:12.275Z,3.60
2019-05-06T21:39:42.237Z,3.40
2019-05-06T21:42:09.549Z,3.40
2019-05-06T21:44:37.224Z,3.40
2019-05-06T21:47:04.887Z,3.40
2019-05-06T21:49:32.815Z,3.20
2019-05-06T21:52:02.206Z,3.10
2019-05-06T21:54:32.524Z,2.90
2019-05-06T21:56:59.852Z,2.70
2019-05-06T21:59:27.844Z,2.70
2019-05-06T22:01:55.856Z,2.70
2019-05-06T22:04:23.514Z,2.80
2019-05-06T22:06:52.444Z,2.80
2019-05-06T22:09:22.222Z,2.80
2019-05-06T22:11:50.172Z,2.90
2019-05-06T22:14:18.099Z,2.80
2019-05-06T22:16:45.819Z,2.70
2019-05-06T22:19:13.473Z,2.70
2019-05-06T22:21:57.962Z,2.60
2019-05-06T22:24:27.321Z,2.60
2019-05-06T22:26:55.045Z,2.60
2019-05-06T22:29:24.445Z,2.50
2019-05-06T22:31:52.294Z,2.40
2019-05-06T22:34:21.989Z,2.20
2019-05-06T22:36:49.429Z,2.00
2019-05-06T22:39:19.154Z,1.80
2019-05-06T22:41:46.804Z,1.60
2019-05-06T22:44:17.024Z,1.60
2019-05-06T22:46:43.887Z,1.40
2019-05-06T22:49:13.342Z,1.50
2019-05-06T22:51:42.574Z,1.50
2019-05-06T22:54:10.718Z,1.70
2019-05-06T22:56:38.624Z,1.60
2019-05-06T22:59:06.349Z,1.80
2019-05-06T23:01:47.955Z,1.80
2019-05-06T23:04:17.237Z,1.70
2019-05-06T23:06:44.951Z,1.50
2019-05-06T23:09:12.722Z,1.50
2019-05-06T23:11:42.298Z,1.20
2019-05-06T23:14:12.240Z,1.00
2019-05-06T23:16:39.212Z,1.00
2019-05-06T23:19:06.883Z,0.90
2019-05-06T23:21:34.543Z,0.80
2019-05-06T23:24:02.268Z,0.60
2019-05-06T23:26:29.949Z,0.50
2019-05-06T23:28:57.775Z,0.50
2019-05-06T23:31:25.498Z,0.40
2019-05-06T23:33:53.479Z,0.50
2019-05-06T23:36:22.883Z,0.50
2019-05-06T23:39:09.132Z,0.50
2019-05-06T23:41:55.407Z,0.70
2019-05-06T23:44:45.850Z,0.50
2019-05-06T23:47:29.921Z,0.40
2019-05-06T23:50:15.873Z,0.40
2019-05-06T23:53:02.985Z,0.30
2019-05-06T23:55:48.807Z,0.40
2019-05-06T23:58:16.036Z,0.40
